createdAt,value
2023-05-14T00:01:52.865Z,34.63
2023-05-14T00:04:21.389Z,29.67
2023-05-14T00:06:49.726Z,35.17
2023-05-14T00:09:18.137Z,34.05
2023-05-14T00:11:47.758Z,36.60
2023-05-14T00:14:16.072Z,32.88
2023-05-14T00:16:44.352Z,35.05
2023-05-14T00:19:12.767Z,31.27
2023-05-14T00:21:41.079Z,33.28
2023-05-14T00:24:09.683Z,29.92
2023-05-14T00:26:37.952Z,31.35
2023-05-14T00:29:07.589Z,29.52
2023-05-14T00:31:36.226Z,35.30
2023-05-14T00:34:04.727Z,31.92
2023-05-14T00:36:33.057Z,35.40
2023-05-14T00:39:01.424Z,34.08
2023-05-14T00:41:29.666Z,31.88
2023-05-14T00:43:58.029Z,30.25
2023-05-14T00:46:27.790Z,32.95
2023-05-14T00:48:56.743Z,33.67
2023-05-14T00:51:25.520Z,33.30
2023-05-14T00:53:54.517Z,33.13
2023-05-14T00:56:23.063Z,28.45
2023-05-14T00:58:51.380Z,35.75
2023-05-14T01:01:19.678Z,35.83
2023-05-14T01:03:49.869Z,33.65
2023-05-14T01:06:25.768Z,31.52
2023-05-14T01:09:04.520Z,39.33
2023-05-14T01:11:43.631Z,35.97
2023-05-14T01:14:22.691Z,32.92
2023-05-14T01:16:56.520Z,35.00
2023-05-14T01:19:35.288Z,31.02
2023-05-14T01:22:05.892Z,38.15
2023-05-14T01:24:34.569Z,32.05
2023-05-14T01:27:09.369Z,34.97
2023-05-14T01:29:43.128Z,29.77
2023-05-14T01:32:13.466Z,34.53
2023-05-14T01:34:42.606Z,27.50
2023-05-14T01:37:14.081Z,30.90
2023-05-14T01:39:43.329Z,30.45
2023-05-14T01:42:12.180Z,31.88
2023-05-14T01:44:40.923Z,33.00
2023-05-14T01:47:09.451Z,32.20
2023-05-14T01:49:37.806Z,28.08
2023-05-14T01:52:08.513Z,30.45
2023-05-14T01:54:38.169Z,30.95
2023-05-14T01:57:06.899Z,25.40
2023-05-14T01:59:35.195Z,30.20
2023-05-14T02:02:03.619Z,36.05
2023-05-14T02:04:32.020Z,31.13
2023-05-14T02:07:00.491Z,27.60
2023-05-14T02:09:28.793Z,32.35
2023-05-14T02:11:58.433Z,30.98
2023-05-14T02:14:26.724Z,31.08
2023-05-14T02:16:55.091Z,32.05
2023-05-14T02:19:23.348Z,31.90
2023-05-14T02:21:51.761Z,34.45
2023-05-14T02:24:20.050Z,27.83
2023-05-14T02:26:48.423Z,33.05
2023-05-14T02:29:18.051Z,35.83
2023-05-14T02:31:46.637Z,36.53
2023-05-14T02:34:14.923Z,31.65
2023-05-14T02:36:43.261Z,32.47
2023-05-14T02:39:11.796Z,37.17
2023-05-14T02:41:40.192Z,29.15
2023-05-14T02:44:08.435Z,32.85
2023-05-14T02:46:38.136Z,30.55
2023-05-14T02:49:06.462Z,35.47
2023-05-14T02:51:34.754Z,32.05
2023-05-14T02:54:03.195Z,36.25
2023-05-14T02:56:31.497Z,32.58
2023-05-14T02:58:59.882Z,36.30
2023-05-14T03:01:28.770Z,31.85
2023-05-14T03:03:58.912Z,28.42
2023-05-14T03:06:27.381Z,28.00
2023-05-14T03:08:55.698Z,31.45
2023-05-14T03:11:24.059Z,32.25
2023-05-14T03:13:52.650Z,32.10
2023-05-14T03:16:21.071Z,32.75
2023-05-14T03:18:49.459Z,31.13
2023-05-14T03:21:19.245Z,27.83
2023-05-14T03:23:47.565Z,29.93
2023-05-14T03:26:15.900Z,29.83
2023-05-14T03:28:45.273Z,31.17
2023-05-14T03:31:14.135Z,31.45
2023-05-14T03:33:42.581Z,29.17
2023-05-14T03:36:11.038Z,28.05
2023-05-14T03:38:40.670Z,34.17
2023-05-14T03:41:09.532Z,30.77
2023-05-14T03:43:37.882Z,25.25
2023-05-14T03:46:06.404Z,30.48
2023-05-14T03:48:34.778Z,29.55
2023-05-14T03:51:06.001Z,28.58
2023-05-14T03:53:37.286Z,26.95
2023-05-14T03:56:07.517Z,31.80
2023-05-14T03:58:35.853Z,26.35
2023-05-14T04:01:04.257Z,32.30
2023-05-14T04:03:32.734Z,26.92
2023-05-14T04:06:01.165Z,29.08
2023-05-14T04:08:29.766Z,28.13
2023-05-14T04:10:58.203Z,28.73
2023-05-14T04:13:27.940Z,31.90
2023-05-14T04:15:56.390Z,27.80
2023-05-14T04:18:26.082Z,32.42
2023-05-14T04:20:54.352Z,26.17
2023-05-14T04:23:23.316Z,29.55
2023-05-14T04:25:51.712Z,35.10
2023-05-14T04:28:20.027Z,33.08
2023-05-14T04:30:50.112Z,29.15
2023-05-14T04:33:18.432Z,32.70
2023-05-14T04:35:47.757Z,29.45
2023-05-14T04:38:16.497Z,31.67
2023-05-14T04:40:44.755Z,32.13
2023-05-14T04:43:13.113Z,34.03
2023-05-14T04:45:43.082Z,32.53
2023-05-14T04:48:12.777Z,31.67
2023-05-14T04:50:41.069Z,33.83
2023-05-14T04:53:09.414Z,37.60
2023-05-14T04:55:37.862Z,37.05
2023-05-14T04:58:06.385Z,31.95
2023-05-14T05:00:35.494Z,42.15
2023-05-14T05:03:03.838Z,34.85
2023-05-14T05:05:33.612Z,36.97
2023-05-14T05:08:02.007Z,38.35
2023-05-14T05:10:30.477Z,37.28
2023-05-14T05:12:58.781Z,40.70
2023-05-14T05:15:27.085Z,40.92
2023-05-14T05:17:55.517Z,45.72
2023-05-14T05:20:25.124Z,42.47
2023-05-14T05:22:55.008Z,40.13
2023-05-14T05:25:23.552Z,42.03
2023-05-14T05:27:51.822Z,43.08
2023-05-14T05:30:20.403Z,43.00
2023-05-14T05:32:48.956Z,42.15
2023-05-14T05:35:17.571Z,36.90
2023-05-14T05:37:46.096Z,43.30
2023-05-14T05:40:15.998Z,46.35
2023-05-14T05:42:44.383Z,50.97
2023-05-14T05:45:12.944Z,40.28
2023-05-14T05:47:42.077Z,44.78
2023-05-14T05:50:12.277Z,41.92
2023-05-14T05:52:41.322Z,42.50
2023-05-14T05:55:11.004Z,43.05
2023-05-14T05:57:40.739Z,41.15
2023-05-14T06:00:14.132Z,43.90
2023-05-14T06:02:43.029Z,45.10
2023-05-14T06:05:12.654Z,43.33
2023-05-14T06:07:41.519Z,46.53
2023-05-14T06:10:10.460Z,47.28
2023-05-14T06:12:40.436Z,40.78
2023-05-14T06:15:09.966Z,39.35
2023-05-14T06:17:38.434Z,41.80
2023-05-14T06:20:10.141Z,39.47
2023-05-14T06:22:38.708Z,39.10
2023-05-14T06:25:08.271Z,39.28
2023-05-14T06:27:36.790Z,38.70
2023-05-14T06:30:08.010Z,35.60
2023-05-14T06:32:36.487Z,34.78
2023-05-14T06:35:05.362Z,33.20
2023-05-14T06:37:33.856Z,30.50
2023-05-14T06:40:02.439Z,26.70
2023-05-14T06:42:31.088Z,31.00
2023-05-14T06:45:00.191Z,28.05
2023-05-14T06:47:29.883Z,28.80
2023-05-14T06:49:58.844Z,29.90
2023-05-14T06:52:27.218Z,30.98
2023-05-14T06:54:55.560Z,28.05
2023-05-14T06:57:24.192Z,25.98
2023-05-14T06:59:52.497Z,29.13
2023-05-14T07:02:21.829Z,31.85
2023-05-14T07:04:51.508Z,28.67
2023-05-14T07:07:21.309Z,27.17
2023-05-14T07:09:49.760Z,30.02
2023-05-14T07:12:18.220Z,28.65
2023-05-14T07:14:46.926Z,26.25
2023-05-14T07:17:15.450Z,27.73
2023-05-14T07:19:44.008Z,24.45
2023-05-14T07:22:13.628Z,26.40
2023-05-14T07:24:42.108Z,23.80
2023-05-14T07:27:10.461Z,28.23
2023-05-14T07:29:38.829Z,29.55
2023-05-14T07:32:07.225Z,27.27
2023-05-14T07:34:35.708Z,24.85
2023-05-14T07:37:04.574Z,22.40
2023-05-14T07:39:34.350Z,23.98
2023-05-14T07:42:02.885Z,24.67
2023-05-14T07:44:31.236Z,28.45
2023-05-14T07:46:59.679Z,27.42
2023-05-14T07:49:28.044Z,23.98
2023-05-14T07:51:56.312Z,24.02
2023-05-14T07:54:24.714Z,18.83
2023-05-14T07:56:54.555Z,23.08
2023-05-14T07:59:23.292Z,21.73
2023-05-14T08:01:51.837Z,23.52
2023-05-14T08:04:20.198Z,21.23
2023-05-14T08:06:48.665Z,20.02
2023-05-14T08:09:20.182Z,22.45
2023-05-14T08:11:48.582Z,23.70
2023-05-14T08:14:18.316Z,21.73
2023-05-14T08:16:46.729Z,18.50
2023-05-14T08:19:16.294Z,21.45
2023-05-14T08:21:45.763Z,18.08
2023-05-14T08:24:14.381Z,19.70
2023-05-14T08:26:42.960Z,18.67
2023-05-14T08:29:12.911Z,20.92
2023-05-14T08:31:43.705Z,18.23
2023-05-14T08:34:12.114Z,17.30
2023-05-14T08:36:40.671Z,23.20
2023-05-14T08:39:09.306Z,18.50
2023-05-14T08:41:37.741Z,18.83
2023-05-14T08:44:10.307Z,19.88
2023-05-14T08:46:39.593Z,20.00
2023-05-14T08:49:22.571Z,20.25
2023-05-14T08:51:51.212Z,23.40
2023-05-14T08:54:23.690Z,17.63
2023-05-14T08:56:53.683Z,18.00
2023-05-14T08:59:22.181Z,18.60
2023-05-14T09:01:54.731Z,16.73
2023-05-14T09:04:26.059Z,17.20
2023-05-14T09:06:56.463Z,21.33
2023-05-14T09:09:25.162Z,18.27
2023-05-14T09:11:55.159Z,16.58
2023-05-14T09:14:24.484Z,16.90
2023-05-14T09:16:54.777Z,24.65
2023-05-14T09:19:25.397Z,17.65
2023-05-14T09:21:53.931Z,19.95
2023-05-14T09:24:23.959Z,20.77
2023-05-14T09:26:53.677Z,17.80
2023-05-14T09:29:22.114Z,19.88
2023-05-14T09:31:52.370Z,19.92
2023-05-14T09:34:30.610Z,18.20
2023-05-14T09:37:00.640Z,18.17
2023-05-14T09:39:30.357Z,20.67
2023-05-14T09:41:58.693Z,17.33
2023-05-14T09:44:28.238Z,18.92
2023-05-14T09:46:57.344Z,15.18
2023-05-14T09:49:27.099Z,15.13
2023-05-14T09:51:57.882Z,19.33
2023-05-14T09:54:27.892Z,19.13
2023-05-14T09:56:56.336Z,20.45
2023-05-14T09:59:24.705Z,20.45
2023-05-14T10:01:54.482Z,17.52
2023-05-14T10:04:24.602Z,25.83
2023-05-14T10:06:56.063Z,23.70
2023-05-14T10:09:29.387Z,19.48
2023-05-14T10:12:02.236Z,14.43
2023-05-14T10:14:40.239Z,19.35
2023-05-14T10:17:18.153Z,20.55
2023-05-14T10:19:53.769Z,19.38
2023-05-14T10:22:25.514Z,14.73
2023-05-14T10:24:54.822Z,19.35
2023-05-14T10:27:24.376Z,19.95
2023-05-14T10:29:55.500Z,14.90
2023-05-14T10:32:25.892Z,18.00
2023-05-14T10:34:55.045Z,15.23
2023-05-14T10:37:27.068Z,18.88
2023-05-14T10:39:59.963Z,17.75
2023-05-14T10:42:31.505Z,19.33
2023-05-14T10:45:02.377Z,17.80
2023-05-14T10:47:31.264Z,18.63
2023-05-14T10:50:02.685Z,15.70
2023-05-14T10:52:33.152Z,17.40
2023-05-14T10:55:04.198Z,18.80
2023-05-14T10:57:33.757Z,16.50
2023-05-14T11:00:03.254Z,13.00
2023-05-14T11:02:35.096Z,18.40
2023-05-14T11:05:05.783Z,17.13
2023-05-14T11:10:09.277Z,21.92
2023-05-14T11:12:39.618Z,15.93
2023-05-14T11:15:10.436Z,17.25
2023-05-14T11:17:40.850Z,13.30
2023-05-14T11:20:11.485Z,23.13
2023-05-14T11:22:43.073Z,16.92
2023-05-14T11:25:14.736Z,18.67
2023-05-14T11:27:45.642Z,17.90
2023-05-14T11:32:45.599Z,17.60
2023-05-14T11:35:14.775Z,17.13
2023-05-14T11:37:45.270Z,16.27
2023-05-14T11:40:17.459Z,19.42
2023-05-14T11:42:46.079Z,15.98
2023-05-14T11:45:24.862Z,17.30
2023-05-14T11:47:54.658Z,20.27
2023-05-14T11:50:23.790Z,21.55
2023-05-14T11:52:58.387Z,16.65
2023-05-14T11:55:26.931Z,17.52
2023-05-14T11:57:55.673Z,21.52
2023-05-14T12:00:25.114Z,22.17
2023-05-14T12:02:53.876Z,17.73
2023-05-14T12:05:22.647Z,23.52
2023-05-14T12:07:51.154Z,15.80
2023-05-14T12:10:21.084Z,16.75
2023-05-14T12:12:50.440Z,16.13
2023-05-14T12:15:19.320Z,18.85
2023-05-14T12:17:52.210Z,15.70
2023-05-14T12:20:20.772Z,16.90
2023-05-14T12:22:49.192Z,21.30
2023-05-14T12:25:17.566Z,15.30
2023-05-14T12:27:47.387Z,17.85
2023-05-14T12:30:21.900Z,16.90
2023-05-14T12:33:02.437Z,19.40
2023-05-14T12:35:30.767Z,17.52
2023-05-14T12:37:59.099Z,23.63
2023-05-14T12:40:27.482Z,16.95
2023-05-14T12:42:57.663Z,17.70
2023-05-14T12:45:26.339Z,16.98
2023-05-14T12:47:54.781Z,14.45
2023-05-14T12:50:23.588Z,20.52
2023-05-14T12:52:52.007Z,23.85
2023-05-14T12:55:20.437Z,21.98
2023-05-14T12:57:48.924Z,22.27
2023-05-14T13:00:19.558Z,18.70
2023-05-14T13:05:16.123Z,21.05
2023-05-14T13:07:44.450Z,20.60
2023-05-14T13:10:13.353Z,18.20
2023-05-14T13:12:41.651Z,17.90
2023-05-14T13:15:11.745Z,25.42
2023-05-14T13:17:41.667Z,19.27
2023-05-14T13:20:11.161Z,20.42
2023-05-14T13:22:39.609Z,17.92
2023-05-14T13:25:09.801Z,18.00
2023-05-14T13:27:38.194Z,24.02
2023-05-14T13:30:08.198Z,19.85
2023-05-14T13:32:36.660Z,20.80
2023-05-14T13:35:07.797Z,21.40
2023-05-14T13:37:36.622Z,23.67
2023-05-14T13:40:08.274Z,17.80
2023-05-14T13:42:37.222Z,20.73
2023-05-14T13:45:06.806Z,21.08
2023-05-14T13:47:35.342Z,18.20
2023-05-14T13:50:05.629Z,20.10
2023-05-14T13:52:34.081Z,20.13
2023-05-14T13:55:02.439Z,21.08
2023-05-14T13:57:30.839Z,21.40
2023-05-14T13:59:59.194Z,21.00
2023-05-14T14:02:27.613Z,20.58
2023-05-14T14:04:55.977Z,21.85
2023-05-14T14:07:25.711Z,23.80
2023-05-14T14:09:54.197Z,23.10
2023-05-14T14:12:22.557Z,18.48
2023-05-14T14:14:50.996Z,24.38
2023-05-14T14:17:19.407Z,21.92
2023-05-14T14:19:47.825Z,20.65
2023-05-14T14:22:17.355Z,21.50
2023-05-14T14:24:47.224Z,21.15
2023-05-14T14:27:15.517Z,18.47
2023-05-14T14:29:43.908Z,22.77
2023-05-14T14:32:12.124Z,20.58
2023-05-14T14:34:40.582Z,19.38
2023-05-14T14:37:08.995Z,22.95
2023-05-14T14:39:37.441Z,20.65
2023-05-14T14:42:08.519Z,18.17
2023-05-14T14:44:36.861Z,20.70
2023-05-14T14:47:06.080Z,20.50
2023-05-14T14:49:34.390Z,19.88
2023-05-14T14:52:02.759Z,25.58
2023-05-14T14:54:31.083Z,18.70
2023-05-14T14:56:59.386Z,18.90
2023-05-14T14:59:29.096Z,21.90
2023-05-14T15:01:57.479Z,17.03
2023-05-14T15:04:25.906Z,24.02
2023-05-14T15:06:54.236Z,20.80
2023-05-14T15:09:22.602Z,20.10
2023-05-14T15:11:50.978Z,19.15
2023-05-14T15:14:19.311Z,15.35
2023-05-14T15:16:51.017Z,20.73
2023-05-14T15:19:19.597Z,17.83
2023-05-14T15:21:47.950Z,14.80
2023-05-14T15:24:16.305Z,17.85
2023-05-14T15:26:44.705Z,20.40
2023-05-14T15:29:13.129Z,19.23
2023-05-14T15:31:41.681Z,19.67
2023-05-14T15:34:11.459Z,17.70
2023-05-14T15:36:39.800Z,16.13
2023-05-14T15:39:10.251Z,20.40
2023-05-14T15:41:38.920Z,17.02
2023-05-14T15:44:07.336Z,17.50
2023-05-14T15:46:35.779Z,23.92
2023-05-14T15:49:04.203Z,18.52
2023-05-14T15:51:33.908Z,16.88
2023-05-14T15:54:02.387Z,20.13
2023-05-14T15:56:31.299Z,15.57
2023-05-14T15:58:59.651Z,14.10
2023-05-14T16:01:28.051Z,20.83
2023-05-14T16:03:56.733Z,19.70
2023-05-14T16:06:25.068Z,20.17
2023-05-14T16:08:54.683Z,16.90
2023-05-14T16:11:23.042Z,17.45
2023-05-14T16:13:51.743Z,20.40
2023-05-14T16:16:22.764Z,24.05
2023-05-14T16:18:51.642Z,20.73
2023-05-14T16:21:19.941Z,20.08
2023-05-14T16:23:48.430Z,19.27
2023-05-14T16:26:18.137Z,14.63
2023-05-14T16:28:46.502Z,17.23
2023-05-14T16:31:15.357Z,14.73
2023-05-14T16:33:43.741Z,16.35
2023-05-14T16:36:12.088Z,18.52
2023-05-14T16:38:52.383Z,14.73
2023-05-14T16:41:30.129Z,69.45
2023-05-14T16:43:58.534Z,28.40
2023-05-14T16:46:28.214Z,17.90
2023-05-14T16:48:56.664Z,19.40
2023-05-14T16:51:25.044Z,18.63
2023-05-14T16:53:55.418Z,15.30
2023-05-14T16:58:53.541Z,17.27
2023-05-14T17:01:21.949Z,16.40
2023-05-14T17:03:50.308Z,16.33
2023-05-14T17:06:18.804Z,14.77
2023-05-14T17:08:47.271Z,14.68
2023-05-14T17:11:15.675Z,15.32
2023-05-14T17:13:44.162Z,18.13
2023-05-14T17:16:14.037Z,16.52
2023-05-14T17:18:42.493Z,16.55
2023-05-14T17:21:10.938Z,14.95
2023-05-14T17:23:39.297Z,13.60
2023-05-14T17:26:08.000Z,16.58
2023-05-14T17:28:36.346Z,17.25
2023-05-14T17:31:04.712Z,19.48
2023-05-14T17:33:34.436Z,17.10
2023-05-14T17:36:03.059Z,16.80
2023-05-14T17:38:31.430Z,17.50
2023-05-14T17:40:59.941Z,13.32
2023-05-14T17:43:28.329Z,12.23
2023-05-14T17:45:56.741Z,14.35
2023-05-14T17:48:25.263Z,16.27
2023-05-14T17:50:54.970Z,15.80
2023-05-14T17:53:23.395Z,16.37
2023-05-14T17:55:51.729Z,15.43
2023-05-14T17:58:20.401Z,15.90
2023-05-14T18:00:48.833Z,13.02
2023-05-14T18:03:17.510Z,13.43
2023-05-14T18:05:46.128Z,16.48
2023-05-14T18:08:15.874Z,17.50
2023-05-14T18:10:44.319Z,19.53
2023-05-14T18:13:12.743Z,18.85
2023-05-14T18:15:41.038Z,16.60
2023-05-14T18:18:09.874Z,15.60
2023-05-14T18:20:38.352Z,18.50
2023-05-14T18:23:06.973Z,14.55
2023-05-14T18:25:37.734Z,16.58
2023-05-14T18:28:06.695Z,14.55
2023-05-14T18:30:35.129Z,19.15
2023-05-14T18:33:03.722Z,23.70
2023-05-14T18:35:32.206Z,16.92
2023-05-14T18:38:00.744Z,13.77
2023-05-14T18:40:28.986Z,15.02
2023-05-14T18:42:58.681Z,12.60
2023-05-14T18:45:27.025Z,12.98
2023-05-14T18:47:56.368Z,15.30
2023-05-14T18:50:24.686Z,16.48
2023-05-14T18:52:53.039Z,14.52
2023-05-14T18:55:21.342Z,15.07
2023-05-14T18:57:49.728Z,15.32
2023-05-14T19:00:20.173Z,16.77
2023-05-14T19:02:48.647Z,14.20
2023-05-14T19:05:17.281Z,17.77
2023-05-14T19:07:48.048Z,15.32
2023-05-14T19:12:47.065Z,16.35
2023-05-14T19:15:15.615Z,16.42
2023-05-14T19:17:45.549Z,19.40
2023-05-14T19:20:14.337Z,18.98
2023-05-14T19:22:42.672Z,20.25
2023-05-14T19:25:12.233Z,17.95
2023-05-14T19:27:40.879Z,20.48
2023-05-14T19:30:10.995Z,15.40
2023-05-14T19:32:39.371Z,23.52
2023-05-14T19:35:11.485Z,15.70
2023-05-14T19:37:39.889Z,16.88
2023-05-14T19:40:09.928Z,17.88
2023-05-14T19:42:38.308Z,15.18
2023-05-14T19:45:07.895Z,17.42
2023-05-14T19:47:36.566Z,19.83
2023-05-14T19:50:05.711Z,17.70
2023-05-14T19:52:35.466Z,19.10
2023-05-14T19:55:03.887Z,17.20
2023-05-14T19:57:32.201Z,20.25
2023-05-14T20:00:00.490Z,16.50
2023-05-14T20:02:29.276Z,14.63
2023-05-14T20:04:58.015Z,17.20
2023-05-14T20:07:26.929Z,17.40
2023-05-14T20:09:56.617Z,19.38
2023-05-14T20:12:25.051Z,16.92
2023-05-14T20:14:53.321Z,16.92
2023-05-14T20:17:21.781Z,15.05
2023-05-14T20:19:50.204Z,20.73
2023-05-14T20:22:18.475Z,17.00
2023-05-14T20:24:46.956Z,17.73
2023-05-14T20:27:16.892Z,18.67
2023-05-14T20:29:46.635Z,19.73
2023-05-14T20:32:15.585Z,20.57
2023-05-14T20:34:43.949Z,16.02
2023-05-14T20:37:13.034Z,17.60
2023-05-14T20:39:41.416Z,22.45
2023-05-14T20:42:09.745Z,19.00
2023-05-14T20:44:39.753Z,17.13
2023-05-14T20:47:08.231Z,21.52
2023-05-14T20:49:36.581Z,19.75
2023-05-14T20:52:05.825Z,24.13
2023-05-14T20:54:34.170Z,22.65
2023-05-14T20:57:02.526Z,20.15
2023-05-14T20:59:30.970Z,22.48
2023-05-14T21:02:01.050Z,19.92
2023-05-14T21:04:29.829Z,20.77
2023-05-14T21:06:58.281Z,19.35
2023-05-14T21:09:27.304Z,19.15
2023-05-14T21:11:56.109Z,20.02
2023-05-14T21:14:24.586Z,18.10
2023-05-14T21:16:52.989Z,17.38
2023-05-14T21:19:23.481Z,20.80
2023-05-14T21:21:52.030Z,18.85
2023-05-14T21:24:20.469Z,20.00
2023-05-14T21:26:48.822Z,18.67
2023-05-14T21:29:17.423Z,18.75
2023-05-14T21:31:45.848Z,23.00
2023-05-14T21:34:14.263Z,20.33
2023-05-14T21:36:44.141Z,21.08
2023-05-14T21:39:12.509Z,22.20
2023-05-14T21:41:41.436Z,24.88
2023-05-14T21:44:09.871Z,20.77
2023-05-14T21:46:38.318Z,23.23
2023-05-14T21:49:07.020Z,25.08
2023-05-14T21:51:35.899Z,28.98
2023-05-14T21:54:08.765Z,24.45
2023-05-14T21:56:37.471Z,34.33
2023-05-14T21:59:05.824Z,26.00
2023-05-14T22:01:42.154Z,29.70
2023-05-14T22:04:19.389Z,27.08
2023-05-14T22:06:49.665Z,28.50
2023-05-14T22:09:21.175Z,30.85
2023-05-14T22:11:51.227Z,25.10
2023-05-14T22:14:21.137Z,28.33
2023-05-14T22:16:50.055Z,33.97
2023-05-14T22:19:18.534Z,34.42
2023-05-14T22:21:47.214Z,33.55
2023-05-14T22:24:15.561Z,32.78
2023-05-14T22:26:45.476Z,32.35
2023-05-14T22:29:13.817Z,35.10
2023-05-14T22:31:42.255Z,38.30
2023-05-14T22:34:10.593Z,36.33
2023-05-14T22:36:39.494Z,37.58
2023-05-14T22:39:07.943Z,44.28
2023-05-14T22:41:36.979Z,37.22
2023-05-14T22:44:06.774Z,41.42
2023-05-14T22:46:35.384Z,37.60
2023-05-14T22:49:03.720Z,38.97
2023-05-14T22:51:32.061Z,42.45
2023-05-14T22:54:00.304Z,41.80
2023-05-14T22:56:29.083Z,43.60
2023-05-14T22:58:57.386Z,42.10
2023-05-14T23:01:27.390Z,47.28
2023-05-14T23:03:55.962Z,42.83
2023-05-14T23:06:25.459Z,40.10
2023-05-14T23:08:53.930Z,48.45
2023-05-14T23:11:22.629Z,41.17
2023-05-14T23:13:51.251Z,45.13
2023-05-14T23:16:21.470Z,46.00
2023-05-14T23:18:51.406Z,39.42
2023-05-14T23:21:19.946Z,43.88
2023-05-14T23:23:48.621Z,43.95
2023-05-14T23:26:16.890Z,42.03
2023-05-14T23:28:45.250Z,45.80
2023-05-14T23:31:13.487Z,45.50
2023-05-14T23:33:44.673Z,47.35
2023-05-14T23:36:14.406Z,46.45
2023-05-14T23:38:43.067Z,46.70
2023-05-14T23:41:11.377Z,50.65
2023-05-14T23:43:39.628Z,46.55
2023-05-14T23:46:08.809Z,45.97
2023-05-14T23:48:37.186Z,40.50
2023-05-14T23:51:05.642Z,41.65
2023-05-14T23:53:35.429Z,48.13
2023-05-14T23:56:03.881Z,42.77
2023-05-14T23:58:32.995Z,44.95
